sensor_id;sensor_type;location;lat;lon;timestamp;P1;durP1;ratioP1;P2;durP2;ratioP2
73563;SDS011;61834;50.196;6.454;2022-07-24T00:02:17;5.53;;;4.07;;
73563;SDS011;61834;50.196;6.454;2022-07-24T00:04:42;5.22;;;4.20;;
73563;SDS011;61834;50.196;6.454;2022-07-24T00:07:07;6.75;;;3.95;;
73563;SDS011;61834;50.196;6.454;2022-07-24T00:09:33;6.70;;;3.83;;
73563;SDS011;61834;50.196;6.454;2022-07-24T00:11:58;6.20;;;4.25;;
73563;SDS011;61834;50.196;6.454;2022-07-24T00:14:24;4.50;;;3.95;;
73563;SDS011;61834;50.196;6.454;2022-07-24T00:16:50;5.25;;;3.90;;
73563;SDS011;61834;50.196;6.454;2022-07-24T00:19:15;5.78;;;3.80;;
73563;SDS011;61834;50.196;6.454;2022-07-24T00:21:40;4.57;;;3.67;;
73563;SDS011;61834;50.196;6.454;2022-07-24T00:24:06;5.55;;;3.90;;
73563;SDS011;61834;50.196;6.454;2022-07-24T00:26:31;6.97;;;4.28;;
73563;SDS011;61834;50.196;6.454;2022-07-24T00:28:57;4.22;;;3.47;;
73563;SDS011;61834;50.196;6.454;2022-07-24T00:31:22;4.38;;;3.83;;
73563;SDS011;61834;50.196;6.454;2022-07-24T00:33:48;5.63;;;3.92;;
73563;SDS011;61834;50.196;6.454;2022-07-24T00:36:14;4.95;;;3.55;;
73563;SDS011;61834;50.196;6.454;2022-07-24T00:38:39;4.45;;;3.80;;
73563;SDS011;61834;50.196;6.454;2022-07-24T00:41:05;5.65;;;3.45;;
73563;SDS011;61834;50.196;6.454;2022-07-24T00:43:30;7.70;;;3.88;;
73563;SDS011;61834;50.196;6.454;2022-07-24T00:45:56;5.28;;;3.83;;
73563;SDS011;61834;50.196;6.454;2022-07-24T00:48:21;6.10;;;4.18;;
73563;SDS011;61834;50.196;6.454;2022-07-24T00:50:47;5.53;;;3.78;;
73563;SDS011;61834;50.196;6.454;2022-07-24T00:53:13;6.28;;;4.00;;
73563;SDS011;61834;50.196;6.454;2022-07-24T00:55:38;3.83;;;3.38;;
73563;SDS011;61834;50.196;6.454;2022-07-24T00:58:05;4.82;;;3.50;;
73563;SDS011;61834;50.196;6.454;2022-07-24T01:00:30;7.75;;;4.28;;
73563;SDS011;61834;50.196;6.454;2022-07-24T01:02:56;4.93;;;3.78;;
73563;SDS011;61834;50.196;6.454;2022-07-24T01:05:22;4.95;;;3.92;;
73563;SDS011;61834;50.196;6.454;2022-07-24T01:07:47;5.85;;;3.90;;
73563;SDS011;61834;50.196;6.454;2022-07-24T01:10:13;9.68;;;3.67;;
73563;SDS011;61834;50.196;6.454;2022-07-24T01:12:39;5.68;;;3.97;;
73563;SDS011;61834;50.196;6.454;2022-07-24T01:15:06;4.32;;;3.63;;
73563;SDS011;61834;50.196;6.454;2022-07-24T01:17:35;5.25;;;3.47;;
73563;SDS011;61834;50.196;6.454;2022-07-24T01:20:03;6.75;;;3.78;;
73563;SDS011;61834;50.196;6.454;2022-07-24T01:22:29;5.03;;;3.75;;
73563;SDS011;61834;50.196;6.454;2022-07-24T01:24:54;5.75;;;4.10;;
73563;SDS011;61834;50.196;6.454;2022-07-24T01:27:23;4.30;;;3.55;;
73563;SDS011;61834;50.196;6.454;2022-07-24T01:29:50;4.10;;;3.50;;
73563;SDS011;61834;50.196;6.454;2022-07-24T01:32:16;8.27;;;3.53;;
73563;SDS011;61834;50.196;6.454;2022-07-24T01:34:41;8.90;;;3.80;;
73563;SDS011;61834;50.196;6.454;2022-07-24T01:37:07;6.22;;;3.92;;
73563;SDS011;61834;50.196;6.454;2022-07-24T01:39:32;5.80;;;3.72;;
73563;SDS011;61834;50.196;6.454;2022-07-24T01:41:58;3.90;;;3.35;;
73563;SDS011;61834;50.196;6.454;2022-07-24T01:44:23;5.85;;;4.18;;
73563;SDS011;61834;50.196;6.454;2022-07-24T01:46:48;7.18;;;3.58;;
73563;SDS011;61834;50.196;6.454;2022-07-24T01:49:14;5.13;;;3.83;;
73563;SDS011;61834;50.196;6.454;2022-07-24T01:51:40;4.85;;;3.67;;
73563;SDS011;61834;50.196;6.454;2022-07-24T01:54:05;4.80;;;3.53;;
73563;SDS011;61834;50.196;6.454;2022-07-24T01:56:31;4.20;;;3.47;;
73563;SDS011;61834;50.196;6.454;2022-07-24T01:58:57;5.15;;;4.10;;
73563;SDS011;61834;50.196;6.454;2022-07-24T02:01:23;3.67;;;3.30;;
73563;SDS011;61834;50.196;6.454;2022-07-24T02:03:49;5.50;;;3.50;;
73563;SDS011;61834;50.196;6.454;2022-07-24T02:06:15;6.30;;;3.47;;
73563;SDS011;61834;50.196;6.454;2022-07-24T02:08:41;8.70;;;3.72;;
73563;SDS011;61834;50.196;6.454;2022-07-24T02:11:06;3.97;;;3.58;;
73563;SDS011;61834;50.196;6.454;2022-07-24T02:13:32;6.18;;;3.50;;
73563;SDS011;61834;50.196;6.454;2022-07-24T02:15:57;8.65;;;3.80;;
73563;SDS011;61834;50.196;6.454;2022-07-24T02:18:23;4.18;;;3.35;;
73563;SDS011;61834;50.196;6.454;2022-07-24T02:20:49;5.35;;;3.80;;
73563;SDS011;61834;50.196;6.454;2022-07-24T02:23:14;4.30;;;3.83;;
73563;SDS011;61834;50.196;6.454;2022-07-24T02:25:43;4.72;;;2.63;;
73563;SDS011;61834;50.196;6.454;2022-07-24T02:28:10;5.25;;;3.78;;
73563;SDS011;61834;50.196;6.454;2022-07-24T02:30:36;3.95;;;3.25;;
73563;SDS011;61834;50.196;6.454;2022-07-24T02:33:01;4.35;;;3.35;;
73563;SDS011;61834;50.196;6.454;2022-07-24T02:35:26;7.72;;;3.90;;
73563;SDS011;61834;50.196;6.454;2022-07-24T02:37:52;3.90;;;3.03;;
73563;SDS011;61834;50.196;6.454;2022-07-24T02:40:18;8.00;;;3.40;;
73563;SDS011;61834;50.196;6.454;2022-07-24T02:42:43;3.75;;;3.22;;
73563;SDS011;61834;50.196;6.454;2022-07-24T02:45:08;5.18;;;3.72;;
73563;SDS011;61834;50.196;6.454;2022-07-24T02:47:35;3.85;;;3.08;;
73563;SDS011;61834;50.196;6.454;2022-07-24T02:50:10;4.35;;;3.40;;
73563;SDS011;61834;50.196;6.454;2022-07-24T02:52:35;5.00;;;3.33;;
73563;SDS011;61834;50.196;6.454;2022-07-24T02:55:01;5.28;;;3.60;;
73563;SDS011;61834;50.196;6.454;2022-07-24T02:57:26;3.67;;;3.22;;
73563;SDS011;61834;50.196;6.454;2022-07-24T02:59:51;3.88;;;3.35;;
73563;SDS011;61834;50.196;6.454;2022-07-24T03:02:17;4.60;;;3.42;;
73563;SDS011;61834;50.196;6.454;2022-07-24T03:04:43;4.63;;;3.40;;
73563;SDS011;61834;50.196;6.454;2022-07-24T03:07:08;4.30;;;3.47;;
73563;SDS011;61834;50.196;6.454;2022-07-24T03:09:34;3.83;;;3.42;;
73563;SDS011;61834;50.196;6.454;2022-07-24T03:11:59;3.65;;;2.97;;
73563;SDS011;61834;50.196;6.454;2022-07-24T03:14:24;5.63;;;3.42;;
73563;SDS011;61834;50.196;6.454;2022-07-24T03:16:50;3.80;;;3.40;;
73563;SDS011;61834;50.196;6.454;2022-07-24T03:19:15;4.05;;;3.65;;
73563;SDS011;61834;50.196;6.454;2022-07-24T03:21:40;5.28;;;3.20;;
73563;SDS011;61834;50.196;6.454;2022-07-24T03:24:06;4.55;;;3.55;;
73563;SDS011;61834;50.196;6.454;2022-07-24T03:26:31;5.05;;;3.30;;
73563;SDS011;61834;50.196;6.454;2022-07-24T03:28:56;3.95;;;3.08;;
73563;SDS011;61834;50.196;6.454;2022-07-24T03:31:22;3.80;;;3.40;;
73563;SDS011;61834;50.196;6.454;2022-07-24T03:33:47;3.63;;;3.15;;
73563;SDS011;61834;50.196;6.454;2022-07-24T03:36:13;6.53;;;3.78;;
73563;SDS011;61834;50.196;6.454;2022-07-24T03:38:38;4.15;;;3.25;;
73563;SDS011;61834;50.196;6.454;2022-07-24T03:41:03;4.78;;;3.22;;
73563;SDS011;61834;50.196;6.454;2022-07-24T03:43:29;3.90;;;3.28;;
73563;SDS011;61834;50.196;6.454;2022-07-24T03:45:54;4.75;;;3.60;;
73563;SDS011;61834;50.196;6.454;2022-07-24T03:48:19;5.75;;;3.20;;
73563;SDS011;61834;50.196;6.454;2022-07-24T03:50:45;5.80;;;3.63;;
73563;SDS011;61834;50.196;6.454;2022-07-24T03:53:10;4.38;;;3.28;;
73563;SDS011;61834;50.196;6.454;2022-07-24T03:55:36;6.38;;;3.55;;
73563;SDS011;61834;50.196;6.454;2022-07-24T03:58:02;6.25;;;3.83;;
73563;SDS011;61834;50.196;6.454;2022-07-24T04:00:27;4.97;;;3.67;;
73563;SDS011;61834;50.196;6.454;2022-07-24T04:02:52;3.88;;;3.40;;
73563;SDS011;61834;50.196;6.454;2022-07-24T04:05:18;5.07;;;3.25;;
73563;SDS011;61834;50.196;6.454;2022-07-24T04:07:43;4.93;;;3.50;;
73563;SDS011;61834;50.196;6.454;2022-07-24T04:10:08;4.60;;;3.53;;
73563;SDS011;61834;50.196;6.454;2022-07-24T04:12:34;4.05;;;3.03;;
73563;SDS011;61834;50.196;6.454;2022-07-24T04:15:00;4.95;;;3.25;;
73563;SDS011;61834;50.196;6.454;2022-07-24T04:17:25;4.18;;;3.03;;
73563;SDS011;61834;50.196;6.454;2022-07-24T04:19:50;5.10;;;3.13;;
73563;SDS011;61834;50.196;6.454;2022-07-24T04:22:16;4.05;;;3.35;;
73563;SDS011;61834;50.196;6.454;2022-07-24T04:24:41;6.25;;;3.35;;
73563;SDS011;61834;50.196;6.454;2022-07-24T04:27:07;5.10;;;3.40;;
73563;SDS011;61834;50.196;6.454;2022-07-24T04:29:32;3.50;;;3.20;;
73563;SDS011;61834;50.196;6.454;2022-07-24T04:31:58;3.65;;;3.30;;
73563;SDS011;61834;50.196;6.454;2022-07-24T04:34:23;5.30;;;3.50;;
73563;SDS011;61834;50.196;6.454;2022-07-24T04:36:49;4.28;;;3.13;;
73563;SDS011;61834;50.196;6.454;2022-07-24T04:39:14;4.95;;;3.53;;
73563;SDS011;61834;50.196;6.454;2022-07-24T04:41:40;7.13;;;3.50;;
73563;SDS011;61834;50.196;6.454;2022-07-24T04:44:05;3.38;;;3.08;;
73563;SDS011;61834;50.196;6.454;2022-07-24T04:46:31;3.60;;;3.22;;
73563;SDS011;61834;50.196;6.454;2022-07-24T04:48:57;3.63;;;3.25;;
73563;SDS011;61834;50.196;6.454;2022-07-24T04:51:22;4.47;;;3.50;;
73563;SDS011;61834;50.196;6.454;2022-07-24T04:53:47;4.20;;;3.70;;
73563;SDS011;61834;50.196;6.454;2022-07-24T04:56:13;5.70;;;3.33;;
73563;SDS011;61834;50.196;6.454;2022-07-24T04:58:39;4.70;;;3.33;;
73563;SDS011;61834;50.196;6.454;2022-07-24T05:01:04;4.30;;;3.08;;
73563;SDS011;61834;50.196;6.454;2022-07-24T05:03:29;3.42;;;3.13;;
73563;SDS011;61834;50.196;6.454;2022-07-24T05:05:55;4.20;;;3.28;;
73563;SDS011;61834;50.196;6.454;2022-07-24T05:08:20;3.22;;;2.92;;
73563;SDS011;61834;50.196;6.454;2022-07-24T05:10:46;5.97;;;3.13;;
73563;SDS011;61834;50.196;6.454;2022-07-24T05:13:12;4.00;;;3.47;;
73563;SDS011;61834;50.196;6.454;2022-07-24T05:15:37;5.50;;;3.60;;
73563;SDS011;61834;50.196;6.454;2022-07-24T05:18:02;4.60;;;3.38;;
73563;SDS011;61834;50.196;6.454;2022-07-24T05:20:28;4.70;;;3.72;;
73563;SDS011;61834;50.196;6.454;2022-07-24T05:22:53;3.20;;;2.90;;
73563;SDS011;61834;50.196;6.454;2022-07-24T05:25:19;3.72;;;3.03;;
73563;SDS011;61834;50.196;6.454;2022-07-24T05:27:44;4.75;;;3.35;;
73563;SDS011;61834;50.196;6.454;2022-07-24T05:30:10;4.20;;;3.80;;
73563;SDS011;61834;50.196;6.454;2022-07-24T05:32:36;6.55;;;3.10;;
73563;SDS011;61834;50.196;6.454;2022-07-24T05:35:01;6.78;;;3.53;;
73563;SDS011;61834;50.196;6.454;2022-07-24T05:37:28;5.20;;;3.47;;
73563;SDS011;61834;50.196;6.454;2022-07-24T05:39:53;5.72;;;4.13;;
73563;SDS011;61834;50.196;6.454;2022-07-24T05:42:18;5.70;;;3.38;;
73563;SDS011;61834;50.196;6.454;2022-07-24T05:44:44;5.82;;;4.07;;
73563;SDS011;61834;50.196;6.454;2022-07-24T05:47:09;7.28;;;3.70;;
73563;SDS011;61834;50.196;6.454;2022-07-24T05:49:35;5.18;;;3.38;;
73563;SDS011;61834;50.196;6.454;2022-07-24T05:52:00;7.53;;;3.95;;
73563;SDS011;61834;50.196;6.454;2022-07-24T05:54:27;4.20;;;3.72;;
73563;SDS011;61834;50.196;6.454;2022-07-24T05:56:52;7.25;;;4.00;;
73563;SDS011;61834;50.196;6.454;2022-07-24T05:59:18;4.88;;;4.00;;
73563;SDS011;61834;50.196;6.454;2022-07-24T06:01:43;7.45;;;4.30;;
73563;SDS011;61834;50.196;6.454;2022-07-24T06:04:08;7.57;;;4.63;;
73563;SDS011;61834;50.196;6.454;2022-07-24T06:06:34;9.70;;;5.07;;
73563;SDS011;61834;50.196;6.454;2022-07-24T06:09:00;11.38;;;5.75;;
73563;SDS011;61834;50.196;6.454;2022-07-24T06:11:25;13.18;;;6.28;;
73563;SDS011;61834;50.196;6.454;2022-07-24T06:13:50;12.15;;;6.43;;
73563;SDS011;61834;50.196;6.454;2022-07-24T06:16:16;15.13;;;6.57;;
73563;SDS011;61834;50.196;6.454;2022-07-24T06:18:41;15.80;;;7.03;;
73563;SDS011;61834;50.196;6.454;2022-07-24T06:21:07;14.65;;;6.80;;
73563;SDS011;61834;50.196;6.454;2022-07-24T06:23:32;12.48;;;6.05;;
73563;SDS011;61834;50.196;6.454;2022-07-24T06:25:58;20.50;;;8.18;;
73563;SDS011;61834;50.196;6.454;2022-07-24T06:28:24;15.85;;;7.88;;
73563;SDS011;61834;50.196;6.454;2022-07-24T06:30:49;17.48;;;7.75;;
73563;SDS011;61834;50.196;6.454;2022-07-24T06:33:15;17.52;;;8.25;;
73563;SDS011;61834;50.196;6.454;2022-07-24T06:35:41;22.27;;;10.57;;
73563;SDS011;61834;50.196;6.454;2022-07-24T06:38:06;19.98;;;8.95;;
73563;SDS011;61834;50.196;6.454;2022-07-24T06:40:32;28.98;;;10.55;;
73563;SDS011;61834;50.196;6.454;2022-07-24T06:42:59;24.50;;;11.57;;
73563;SDS011;61834;50.196;6.454;2022-07-24T06:45:24;21.52;;;10.25;;
73563;SDS011;61834;50.196;6.454;2022-07-24T06:47:49;19.73;;;10.00;;
73563;SDS011;61834;50.196;6.454;2022-07-24T06:50:15;24.33;;;11.45;;
73563;SDS011;61834;50.196;6.454;2022-07-24T06:52:41;28.88;;;14.00;;
73563;SDS011;61834;50.196;6.454;2022-07-24T06:55:06;42.55;;;14.85;;
73563;SDS011;61834;50.196;6.454;2022-07-24T06:57:33;35.15;;;14.20;;
73563;SDS011;61834;50.196;6.454;2022-07-24T06:59:58;35.80;;;15.57;;
73563;SDS011;61834;50.196;6.454;2022-07-24T07:02:23;44.65;;;16.77;;
73563;SDS011;61834;50.196;6.454;2022-07-24T07:04:49;42.63;;;16.00;;
73563;SDS011;61834;50.196;6.454;2022-07-24T07:07:16;36.03;;;15.45;;
73563;SDS011;61834;50.196;6.454;2022-07-24T07:09:42;39.38;;;17.05;;
73563;SDS011;61834;50.196;6.454;2022-07-24T07:12:07;40.08;;;15.93;;
73563;SDS011;61834;50.196;6.454;2022-07-24T07:14:33;37.03;;;17.40;;
73563;SDS011;61834;50.196;6.454;2022-07-24T07:16:59;39.58;;;16.52;;
73563;SDS011;61834;50.196;6.454;2022-07-24T07:19:24;44.95;;;17.45;;
73563;SDS011;61834;50.196;6.454;2022-07-24T07:21:49;46.22;;;18.58;;
73563;SDS011;61834;50.196;6.454;2022-07-24T07:24:15;36.72;;;15.27;;
73563;SDS011;61834;50.196;6.454;2022-07-24T07:26:40;38.42;;;16.33;;
73563;SDS011;61834;50.196;6.454;2022-07-24T07:29:06;43.65;;;17.27;;
73563;SDS011;61834;50.196;6.454;2022-07-24T07:31:31;39.28;;;16.55;;
73563;SDS011;61834;50.196;6.454;2022-07-24T07:33:57;35.58;;;16.75;;
73563;SDS011;61834;50.196;6.454;2022-07-24T07:36:23;41.75;;;16.40;;
73563;SDS011;61834;50.196;6.454;2022-07-24T07:38:49;40.38;;;16.13;;
73563;SDS011;61834;50.196;6.454;2022-07-24T07:41:14;35.58;;;15.10;;
73563;SDS011;61834;50.196;6.454;2022-07-24T07:43:39;35.03;;;14.82;;
73563;SDS011;61834;50.196;6.454;2022-07-24T07:46:06;36.28;;;14.77;;
73563;SDS011;61834;50.196;6.454;2022-07-24T07:48:32;37.80;;;15.30;;
73563;SDS011;61834;50.196;6.454;2022-07-24T07:50:58;38.58;;;16.00;;
73563;SDS011;61834;50.196;6.454;2022-07-24T07:53:23;33.33;;;14.23;;
73563;SDS011;61834;50.196;6.454;2022-07-24T07:55:49;34.80;;;14.30;;
73563;SDS011;61834;50.196;6.454;2022-07-24T07:58:19;32.30;;;14.25;;
73563;SDS011;61834;50.196;6.454;2022-07-24T08:00:45;30.40;;;13.32;;
73563;SDS011;61834;50.196;6.454;2022-07-24T08:03:10;28.75;;;14.13;;
73563;SDS011;61834;50.196;6.454;2022-07-24T08:05:36;39.63;;;15.35;;
73563;SDS011;61834;50.196;6.454;2022-07-24T08:08:01;36.85;;;14.68;;
73563;SDS011;61834;50.196;6.454;2022-07-24T08:10:26;32.28;;;15.38;;
73563;SDS011;61834;50.196;6.454;2022-07-24T08:12:52;32.65;;;13.98;;
73563;SDS011;61834;50.196;6.454;2022-07-24T08:15:18;34.33;;;14.15;;
73563;SDS011;61834;50.196;6.454;2022-07-24T08:17:44;32.40;;;14.70;;
73563;SDS011;61834;50.196;6.454;2022-07-24T08:20:09;29.80;;;13.70;;
73563;SDS011;61834;50.196;6.454;2022-07-24T08:22:35;35.03;;;14.52;;
73563;SDS011;61834;50.196;6.454;2022-07-24T08:25:01;29.63;;;13.85;;
73563;SDS011;61834;50.196;6.454;2022-07-24T08:27:26;30.00;;;13.63;;
73563;SDS011;61834;50.196;6.454;2022-07-24T08:29:52;33.10;;;15.27;;
73563;SDS011;61834;50.196;6.454;2022-07-24T08:32:19;30.45;;;13.93;;
73563;SDS011;61834;50.196;6.454;2022-07-24T08:34:45;33.38;;;14.35;;
73563;SDS011;61834;50.196;6.454;2022-07-24T08:37:10;33.53;;;13.40;;
73563;SDS011;61834;50.196;6.454;2022-07-24T08:39:35;25.65;;;13.38;;
73563;SDS011;61834;50.196;6.454;2022-07-24T08:42:01;28.45;;;14.18;;
73563;SDS011;61834;50.196;6.454;2022-07-24T08:44:26;26.45;;;13.25;;
73563;SDS011;61834;50.196;6.454;2022-07-24T08:46:53;26.83;;;13.57;;
73563;SDS011;61834;50.196;6.454;2022-07-24T08:49:19;22.88;;;12.95;;
73563;SDS011;61834;50.196;6.454;2022-07-24T08:51:46;29.95;;;14.23;;
73563;SDS011;61834;50.196;6.454;2022-07-24T08:54:14;26.98;;;12.82;;
73563;SDS011;61834;50.196;6.454;2022-07-24T08:56:40;29.27;;;13.32;;
73563;SDS011;61834;50.196;6.454;2022-07-24T08:59:19;23.60;;;12.35;;
73563;SDS011;61834;50.196;6.454;2022-07-24T09:01:47;25.52;;;12.38;;
73563;SDS011;61834;50.196;6.454;2022-07-24T09:04:32;25.10;;;12.73;;
73563;SDS011;61834;50.196;6.454;2022-07-24T09:07:00;24.85;;;13.15;;
73563;SDS011;61834;50.196;6.454;2022-07-24T09:09:28;23.92;;;12.32;;
73563;SDS011;61834;50.196;6.454;2022-07-24T09:12:03;25.58;;;12.32;;
73563;SDS011;61834;50.196;6.454;2022-07-24T09:14:33;24.60;;;12.02;;
73563;SDS011;61834;50.196;6.454;2022-07-24T09:17:03;19.23;;;11.13;;
73563;SDS011;61834;50.196;6.454;2022-07-24T09:19:52;26.92;;;13.20;;
73563;SDS011;61834;50.196;6.454;2022-07-24T09:27:50;22.02;;;11.15;;
73563;SDS011;61834;50.196;6.454;2022-07-24T09:30:25;19.52;;;10.93;;
73563;SDS011;61834;50.196;6.454;2022-07-24T09:33:02;19.63;;;11.02;;
73563;SDS011;61834;50.196;6.454;2022-07-24T09:37:59;21.08;;;10.68;;
73563;SDS011;61834;50.196;6.454;2022-07-24T09:40:30;22.02;;;10.75;;
73563;SDS011;61834;50.196;6.454;2022-07-24T09:45:53;21.20;;;10.93;;
73563;SDS011;61834;50.196;6.454;2022-07-24T09:48:36;16.83;;;10.05;;
73563;SDS011;61834;50.196;6.454;2022-07-24T09:51:11;18.17;;;10.48;;
73563;SDS011;61834;50.196;6.454;2022-07-24T09:53:38;19.45;;;10.60;;
73563;SDS011;61834;50.196;6.454;2022-07-24T09:56:06;18.88;;;10.23;;
73563;SDS011;61834;50.196;6.454;2022-07-24T09:58:37;17.40;;;10.53;;
73563;SDS011;61834;50.196;6.454;2022-07-24T10:01:05;17.90;;;9.70;;
73563;SDS011;61834;50.196;6.454;2022-07-24T10:03:33;18.55;;;10.18;;
73563;SDS011;61834;50.196;6.454;2022-07-24T10:06:01;17.60;;;9.60;;
73563;SDS011;61834;50.196;6.454;2022-07-24T10:08:29;19.05;;;10.45;;
73563;SDS011;61834;50.196;6.454;2022-07-24T10:10:56;18.05;;;10.60;;
73563;SDS011;61834;50.196;6.454;2022-07-24T10:13:22;18.13;;;9.65;;
73563;SDS011;61834;50.196;6.454;2022-07-24T10:16:32;15.18;;;9.77;;
73563;SDS011;61834;50.196;6.454;2022-07-24T10:21:30;17.42;;;9.60;;
73563;SDS011;61834;50.196;6.454;2022-07-24T10:29:11;15.40;;;9.90;;
73563;SDS011;61834;50.196;6.454;2022-07-24T10:31:38;15.25;;;9.05;;
73563;SDS011;61834;50.196;6.454;2022-07-24T10:34:13;17.88;;;9.55;;
73563;SDS011;61834;50.196;6.454;2022-07-24T10:36:50;15.80;;;9.32;;
73563;SDS011;61834;50.196;6.454;2022-07-24T10:39:25;16.58;;;9.68;;
73563;SDS011;61834;50.196;6.454;2022-07-24T10:42:03;17.20;;;9.68;;
73563;SDS011;61834;50.196;6.454;2022-07-24T10:44:30;15.52;;;9.10;;
73563;SDS011;61834;50.196;6.454;2022-07-24T10:47:00;12.82;;;8.13;;
73563;SDS011;61834;50.196;6.454;2022-07-24T10:52:23;15.88;;;9.23;;
73563;SDS011;61834;50.196;6.454;2022-07-24T10:58:11;15.93;;;9.30;;
73563;SDS011;61834;50.196;6.454;2022-07-24T11:00:40;14.40;;;8.65;;
73563;SDS011;61834;50.196;6.454;2022-07-24T11:03:18;15.38;;;9.13;;
73563;SDS011;61834;50.196;6.454;2022-07-24T11:06:10;12.95;;;8.70;;
73563;SDS011;61834;50.196;6.454;2022-07-24T11:08:40;11.07;;;7.85;;
73563;SDS011;61834;50.196;6.454;2022-07-24T11:11:16;14.18;;;7.97;;
73563;SDS011;61834;50.196;6.454;2022-07-24T11:13:51;13.68;;;8.73;;
73563;SDS011;61834;50.196;6.454;2022-07-24T11:16:19;12.38;;;8.48;;
73563;SDS011;61834;50.196;6.454;2022-07-24T11:21:27;12.98;;;8.57;;
73563;SDS011;61834;50.196;6.454;2022-07-24T11:26:50;11.85;;;7.97;;
73563;SDS011;61834;50.196;6.454;2022-07-24T11:29:30;11.52;;;7.63;;
73563;SDS011;61834;50.196;6.454;2022-07-24T11:32:03;12.10;;;7.95;;
73563;SDS011;61834;50.196;6.454;2022-07-24T11:34:29;11.85;;;7.95;;
73563;SDS011;61834;50.196;6.454;2022-07-24T11:36:56;10.57;;;7.43;;
73563;SDS011;61834;50.196;6.454;2022-07-24T11:39:26;10.73;;;7.30;;
73563;SDS011;61834;50.196;6.454;2022-07-24T11:42:05;9.35;;;7.30;;
73563;SDS011;61834;50.196;6.454;2022-07-24T11:44:39;12.85;;;7.43;;
73563;SDS011;61834;50.196;6.454;2022-07-24T11:47:08;11.48;;;8.20;;
73563;SDS011;61834;50.196;6.454;2022-07-24T11:52:13;11.80;;;7.88;;
73563;SDS011;61834;50.196;6.454;2022-07-24T11:54:43;9.13;;;7.13;;
73563;SDS011;61834;50.196;6.454;2022-07-24T11:57:16;13.48;;;8.07;;
73563;SDS011;61834;50.196;6.454;2022-07-24T11:59:46;10.82;;;7.38;;
73563;SDS011;61834;50.196;6.454;2022-07-24T12:02:12;11.55;;;7.43;;
73563;SDS011;61834;50.196;6.454;2022-07-24T12:04:38;10.25;;;7.28;;
73563;SDS011;61834;50.196;6.454;2022-07-24T12:07:05;9.48;;;7.10;;
73563;SDS011;61834;50.196;6.454;2022-07-24T12:09:47;9.40;;;7.20;;
73563;SDS011;61834;50.196;6.454;2022-07-24T12:12:29;11.40;;;8.05;;
73563;SDS011;61834;50.196;6.454;2022-07-24T12:20:24;9.23;;;7.07;;
73563;SDS011;61834;50.196;6.454;2022-07-24T12:22:54;11.45;;;6.82;;
73563;SDS011;61834;50.196;6.454;2022-07-24T12:25:20;9.95;;;7.32;;
73563;SDS011;61834;50.196;6.454;2022-07-24T12:27:46;8.88;;;6.82;;
73563;SDS011;61834;50.196;6.454;2022-07-24T12:30:19;8.05;;;6.32;;
73563;SDS011;61834;50.196;6.454;2022-07-24T12:35:23;10.00;;;7.23;;
73563;SDS011;61834;50.196;6.454;2022-07-24T12:37:50;9.10;;;6.60;;
73563;SDS011;61834;50.196;6.454;2022-07-24T12:40:27;8.15;;;5.82;;
73563;SDS011;61834;50.196;6.454;2022-07-24T12:42:55;7.53;;;6.32;;
73563;SDS011;61834;50.196;6.454;2022-07-24T12:45:38;8.80;;;6.38;;
73563;SDS011;61834;50.196;6.454;2022-07-24T12:48:08;7.90;;;6.32;;
73563;SDS011;61834;50.196;6.454;2022-07-24T12:50:36;8.55;;;7.15;;
73563;SDS011;61834;50.196;6.454;2022-07-24T12:53:03;8.82;;;6.32;;
73563;SDS011;61834;50.196;6.454;2022-07-24T12:55:30;8.73;;;6.70;;
73563;SDS011;61834;50.196;6.454;2022-07-24T12:58:00;8.55;;;6.53;;
73563;SDS011;61834;50.196;6.454;2022-07-24T13:00:27;8.50;;;5.95;;
73563;SDS011;61834;50.196;6.454;2022-07-24T13:02:52;11.02;;;6.93;;
73563;SDS011;61834;50.196;6.454;2022-07-24T13:05:39;9.05;;;6.97;;
73563;SDS011;61834;50.196;6.454;2022-07-24T13:08:07;8.45;;;6.32;;
73563;SDS011;61834;50.196;6.454;2022-07-24T13:10:33;7.90;;;6.15;;
73563;SDS011;61834;50.196;6.454;2022-07-24T13:12:59;6.90;;;5.97;;
73563;SDS011;61834;50.196;6.454;2022-07-24T13:15:25;6.80;;;5.32;;
73563;SDS011;61834;50.196;6.454;2022-07-24T13:17:51;10.07;;;6.18;;
73563;SDS011;61834;50.196;6.454;2022-07-24T13:20:16;8.07;;;6.35;;
73563;SDS011;61834;50.196;6.454;2022-07-24T13:22:42;8.65;;;6.25;;
73563;SDS011;61834;50.196;6.454;2022-07-24T13:25:07;8.15;;;6.10;;
73563;SDS011;61834;50.196;6.454;2022-07-24T13:27:32;7.68;;;6.18;;
73563;SDS011;61834;50.196;6.454;2022-07-24T13:29:58;7.88;;;6.47;;
73563;SDS011;61834;50.196;6.454;2022-07-24T13:32:23;7.97;;;5.97;;
73563;SDS011;61834;50.196;6.454;2022-07-24T13:34:49;9.63;;;5.90;;
73563;SDS011;61834;50.196;6.454;2022-07-24T13:37:15;7.75;;;6.03;;
73563;SDS011;61834;50.196;6.454;2022-07-24T13:39:40;8.25;;;6.30;;
73563;SDS011;61834;50.196;6.454;2022-07-24T13:42:08;7.70;;;6.50;;
73563;SDS011;61834;50.196;6.454;2022-07-24T13:44:33;7.60;;;5.55;;
73563;SDS011;61834;50.196;6.454;2022-07-24T13:46:59;6.90;;;5.65;;
73563;SDS011;61834;50.196;6.454;2022-07-24T13:49:24;6.75;;;5.68;;
73563;SDS011;61834;50.196;6.454;2022-07-24T13:51:50;7.43;;;6.15;;
73563;SDS011;61834;50.196;6.454;2022-07-24T13:54:15;10.02;;;6.10;;
73563;SDS011;61834;50.196;6.454;2022-07-24T13:56:40;8.32;;;5.70;;
73563;SDS011;61834;50.196;6.454;2022-07-24T13:59:06;9.20;;;5.65;;
73563;SDS011;61834;50.196;6.454;2022-07-24T14:01:31;14.73;;;6.13;;
73563;SDS011;61834;50.196;6.454;2022-07-24T14:03:57;8.63;;;6.03;;
73563;SDS011;61834;50.196;6.454;2022-07-24T14:06:22;9.45;;;6.13;;
73563;SDS011;61834;50.196;6.454;2022-07-24T14:08:48;9.55;;;6.13;;
73563;SDS011;61834;50.196;6.454;2022-07-24T14:11:13;8.18;;;6.15;;
73563;SDS011;61834;50.196;6.454;2022-07-24T14:13:39;9.20;;;5.72;;
73563;SDS011;61834;50.196;6.454;2022-07-24T14:16:05;10.63;;;6.20;;
73563;SDS011;61834;50.196;6.454;2022-07-24T14:18:30;9.10;;;5.60;;
73563;SDS011;61834;50.196;6.454;2022-07-24T14:20:56;9.32;;;5.72;;
73563;SDS011;61834;50.196;6.454;2022-07-24T14:23:22;7.20;;;5.05;;
73563;SDS011;61834;50.196;6.454;2022-07-24T14:25:47;9.70;;;5.53;;
73563;SDS011;61834;50.196;6.454;2022-07-24T14:28:13;7.35;;;5.53;;
73563;SDS011;61834;50.196;6.454;2022-07-24T14:30:39;7.70;;;6.03;;
73563;SDS011;61834;50.196;6.454;2022-07-24T14:33:04;9.10;;;5.78;;
73563;SDS011;61834;50.196;6.454;2022-07-24T14:35:30;9.05;;;5.45;;
73563;SDS011;61834;50.196;6.454;2022-07-24T14:37:56;10.23;;;5.65;;
73563;SDS011;61834;50.196;6.454;2022-07-24T14:40:22;7.60;;;5.03;;
73563;SDS011;61834;50.196;6.454;2022-07-24T14:42:47;8.55;;;5.72;;
73563;SDS011;61834;50.196;6.454;2022-07-24T14:45:13;7.65;;;5.70;;
73563;SDS011;61834;50.196;6.454;2022-07-24T14:47:38;9.32;;;5.25;;
73563;SDS011;61834;50.196;6.454;2022-07-24T14:50:07;7.93;;;5.13;;
73563;SDS011;61834;50.196;6.454;2022-07-24T14:52:33;7.47;;;5.40;;
73563;SDS011;61834;50.196;6.454;2022-07-24T14:54:59;7.00;;;5.20;;
73563;SDS011;61834;50.196;6.454;2022-07-24T14:57:25;9.20;;;5.93;;
73563;SDS011;61834;50.196;6.454;2022-07-24T14:59:50;6.97;;;5.20;;
73563;SDS011;61834;50.196;6.454;2022-07-24T15:02:16;9.98;;;5.18;;
73563;SDS011;61834;50.196;6.454;2022-07-24T15:04:41;7.00;;;5.47;;
73563;SDS011;61834;50.196;6.454;2022-07-24T15:07:07;7.03;;;5.15;;
73563;SDS011;61834;50.196;6.454;2022-07-24T15:09:32;6.97;;;5.07;;
73563;SDS011;61834;50.196;6.454;2022-07-24T15:11:58;6.28;;;4.95;;
73563;SDS011;61834;50.196;6.454;2022-07-24T15:14:23;7.03;;;5.32;;
73563;SDS011;61834;50.196;6.454;2022-07-24T15:16:49;7.55;;;4.80;;
73563;SDS011;61834;50.196;6.454;2022-07-24T15:19:14;6.50;;;4.85;;
73563;SDS011;61834;50.196;6.454;2022-07-24T15:21:40;7.35;;;5.28;;